Time;durP1;ratioP1;P1;durP2;ratioP2;P2;SDS_P1;SDS_P2;PMS_P1;PMS_P2;Temp;Humidity;BMP_temperature;BMP_pressure;BME280_temperature;BME280_humidity;BME280_pressure;Samples;Min_cycle;Max_cycle;Signal;HPM_P1;HPM_P2
2023/10/17 00:01:12;;;;;;;5.15;3.60;;;;;;;6.32;61.53;96858.88;6238425;23;20035;-78
2023/10/17 00:03:43;;;;;;;4.78;3.15;;;;;;;6.27;60.50;96854.13;6237636;23;20084;-78
2023/10/17 00:06:13;;;;;;;4.95;2.45;;;;;;;6.20;60.42;96853.09;6226837;23;20016;-77
2023/10/17 00:08:41;;;;;;;2.78;2.53;;;;;;;6.16;60.60;96857.75;6217129;23;20103;-77
2023/10/17 00:11:14;;;;;;;4.53;3.03;;;;;;;6.21;64.29;96867.69;6216899;23;20107;-77
2023/10/17 00:13:59;;;;;;;3.15;2.40;;;;;;;6.24;61.89;96864.81;6217414;23;20024;-77
2023/10/17 00:16:28;;;;;;;2.80;2.10;;;;;;;6.15;61.01;96868.28;6216087;23;20021;-77
2023/10/17 00:19:04;;;;;;;2.90;2.05;;;;;;;6.06;60.86;96867.38;6216428;23;20411;-77
2023/10/17 00:21:33;;;;;;;4.00;2.05;;;;;;;5.98;60.99;96864.72;6216768;23;20025;-77
2023/10/17 00:24:03;;;;;;;5.10;2.53;;;;;;;5.92;61.08;96865.25;6216412;23;20383;-77
2023/10/17 00:26:31;;;;;;;5.82;3.50;;;;;;;5.85;61.13;96853.88;6215965;23;20012;-77
2023/10/17 00:28:59;;;;;;;4.15;3.05;;;;;;;5.81;61.70;96852.53;6216597;23;20103;-78
2023/10/17 00:31:26;;;;;;;3.33;2.47;;;;;;;5.77;61.51;96852.00;6216172;23;20062;-78
2023/10/17 00:33:57;;;;;;;4.63;2.63;;;;;;;5.72;61.51;96839.47;6216274;23;20028;-77
2023/10/17 00:36:27;;;;;;;3.08;2.38;;;;;;;5.66;61.25;96840.06;6217188;23;20044;-77
2023/10/17 00:39:02;;;;;;;5.28;2.47;;;;;;;5.63;61.17;96824.84;6215711;23;20125;-77
2023/10/17 00:41:35;;;;;;;3.20;2.40;;;;;;;5.61;61.55;96821.56;6216006;23;20533;-78
2023/10/17 00:44:02;;;;;;;5.00;3.17;;;;;;;5.61;61.32;96821.56;6215876;23;20050;-77
2023/10/17 00:46:30;;;;;;;4.25;3.20;;;;;;;5.60;61.32;96817.38;6215688;23;20513;-77
2023/10/17 00:49:06;;;;;;;2.95;2.35;;;;;;;5.61;61.71;96811.22;6215960;23;20028;-77
2023/10/17 00:51:39;;;;;;;3.55;2.40;;;;;;;5.65;61.79;96809.97;6216197;23;20484;-77
2023/10/17 00:54:10;;;;;;;;;;;;;;;5.70;61.33;96812.94;6216325;23;20339;-77
2023/10/17 00:56:40;;;;;;;5.40;2.67;;;;;;;5.66;61.07;96800.44;6215240;23;19920;-77
2023/10/17 00:59:08;;;;;;;3.17;2.58;;;;;;;5.66;61.45;96795.25;6216198;23;20091;-77
2023/10/17 01:01:38;;;;;;;3.03;2.53;;;;;;;5.69;61.40;96793.19;6215885;23;20416;-77
2023/10/17 01:04:06;;;;;;;4.97;2.60;;;;;;;5.72;61.51;96790.31;6217632;23;20044;-77
2023/10/17 01:06:37;;;;;;;5.07;2.70;;;;;;;5.72;61.27;96786.91;6215476;23;20350;-77
2023/10/17 01:09:17;;;;;;;2.60;2.38;;;;;;;5.69;61.15;96793.19;6216762;23;20100;-77
2023/10/17 01:11:47;;;;;;;3.03;2.10;;;;;;;5.68;61.06;96788.16;6217396;23;20024;-77
2023/10/17 01:14:18;;;;;;;4.60;2.35;;;;;;;5.65;61.06;96786.69;6214882;23;20401;-77
2023/10/17 01:16:46;;;;;;;3.55;1.98;;;;;;;5.61;60.78;96780.16;6221905;23;20035;-77
2023/10/17 01:19:19;;;;;;;3.67;2.25;;;;;;;5.57;61.12;96781.41;6240544;23;20024;-78
2023/10/17 01:21:47;;;;;;;4.25;2.72;;;;;;;5.55;61.48;96770.41;6236862;23;20028;-77
2023/10/17 01:24:16;;;;;;;2.85;2.17;;;;;;;5.56;63.82;96772.03;6214913;23;20095;-77
2023/10/17 01:26:45;;;;;;;3.15;2.85;;;;;;;5.57;62.53;96768.47;6215221;23;20020;-77
2023/10/17 01:29:12;;;;;;;4.30;3.05;;;;;;;5.64;64.52;96768.69;6215345;23;20025;-77
2023/10/17 01:31:42;;;;;;;5.30;4.05;;;;;;;5.73;65.47;96760.09;6215447;23;20027;-77
2023/10/17 01:34:12;;;;;;;5.78;3.78;;;;;;;5.72;63.35;96764.41;6215605;23;20024;-77
2023/10/17 01:36:40;;;;;;;6.25;3.88;;;;;;;5.69;62.66;96759.56;6215582;23;20359;-77
2023/10/17 01:39:08;;;;;;;9.10;4.13;;;;;;;5.64;62.25;96764.38;6215221;23;20082;-77
2023/10/17 01:41:42;;;;;;;5.07;3.97;;;;;;;5.54;62.40;96768.78;6215466;23;20025;-77
2023/10/17 01:44:10;;;;;;;6.88;4.75;;;;;;;5.43;62.53;96766.41;6215425;23;20099;-77
2023/10/17 01:46:38;;;;;;;6.50;4.40;;;;;;;5.34;62.45;96768.09;6215122;23;20021;-77
2023/10/17 01:49:11;;;;;;;6.85;4.38;;;;;;;5.27;62.63;96764.44;6214678;23;20020;-77
2023/10/17 01:51:42;;;;;;;;;;;;;;;5.29;63.37;96765.94;6215308;23;20017;-77
2023/10/17 01:54:12;;;;;;;3.85;3.47;;;;;;;5.22;62.63;96754.50;6215136;23;20305;-77
2023/10/17 01:56:47;;;;;;;4.22;3.40;;;;;;;5.19;63.01;96744.47;6215079;23;20023;-77
2023/10/17 01:59:17;;;;;;;4.10;3.60;;;;;;;5.14;63.18;96751.84;6215354;23;20082;-77
2023/10/17 02:01:45;;;;;;;6.05;4.00;;;;;;;5.08;63.09;96761.00;6215412;23;20095;-77
2023/10/17 02:04:14;;;;;;;5.35;3.50;;;;;;;5.07;63.41;96766.28;6214740;23;20021;-77
2023/10/17 02:06:42;;;;;;;4.43;2.95;;;;;;;5.07;63.37;96776.63;6215021;23;20095;-77
2023/10/17 02:09:23;;;;;;;5.70;3.75;;;;;;;5.04;63.38;96774.34;6215145;23;20025;-77
2023/10/17 02:11:54;;;;;;;7.03;3.58;;;;;;;5.03;63.13;96783.03;6215051;23;20059;-77
2023/10/17 02:14:23;;;;;;;4.43;3.28;;;;;;;5.02;63.06;96778.84;6214907;23;20024;-77
2023/10/17 02:16:50;;;;;;;4.53;3.95;;;;;;;4.96;63.14;96785.38;6214713;23;20281;-76
2023/10/17 02:19:19;;;;;;;6.00;3.67;;;;;;;4.89;63.06;96785.13;6215054;23;20021;-76
2023/10/17 02:21:49;;;;;;;4.55;3.90;;;;;;;4.85;63.26;96785.56;6215224;23;20024;-76
2023/10/17 02:24:21;;;;;;;4.18;3.65;;;;;;;4.81;63.47;96791.97;6214792;23;20083;-76
2023/10/17 02:26:56;;;;;;;6.05;3.58;;;;;;;4.80;63.18;96791.16;6214989;23;20455;-76
2023/10/17 02:29:29;;;;;;;4.95;3.53;;;;;;;4.79;63.80;96794.72;6218925;23;20021;-76
2023/10/17 02:31:58;;;;;;;5.00;3.78;;;;;;;4.82;64.72;96789.25;6233489;23;20035;-76
2023/10/17 02:34:29;;;;;;;6.15;3.88;;;;;;;4.84;63.71;96787.34;6220653;23;20335;-77
2023/10/17 02:37:00;;;;;;;5.13;3.75;;;;;;;4.79;63.88;96788.72;6229107;23;20032;-76
2023/10/17 02:39:27;;;;;;;5.55;3.70;;;;;;;4.75;64.11;96794.16;6230306;23;20071;-76
2023/10/17 02:41:58;;;;;;;4.13;3.10;;;;;;;4.76;64.12;96797.56;6215045;23;20025;-76
2023/10/17 02:44:27;;;;;;;11.30;3.45;;;;;;;4.75;64.02;96803.69;6214849;23;20071;-76
2023/10/17 02:46:58;;;;;;;4.88;3.95;;;;;;;4.73;64.01;96800.44;6215089;23;20025;-76
2023/10/17 02:49:26;;;;;;;6.53;3.85;;;;;;;4.70;63.60;96801.53;6215471;23;20024;-76
2023/10/17 02:51:54;;;;;;;5.72;4.03;;;;;;;4.68;64.09;96800.88;6215382;23;20021;-76
2023/10/17 02:54:27;;;;;;;5.43;4.00;;;;;;;4.67;64.08;96798.41;6214919;23;20031;-76
2023/10/17 02:56:55;;;;;;;;;;;;;;;4.69;64.44;96786.16;6215663;23;20097;-76
2023/10/17 02:59:24;;;;;;;4.43;3.15;;;;;;;4.63;64.12;96790.13;6215113;23;20388;-76
2023/10/17 03:01:54;;;;;;;7.07;3.97;;;;;;;4.59;64.43;96787.94;6216517;23;20087;-76
2023/10/17 03:04:24;;;;;;;6.22;3.80;;;;;;;4.56;64.24;96796.00;6215128;23;20024;-76
2023/10/17 03:06:55;;;;;;;3.70;3.30;;;;;;;4.53;64.75;96795.31;6214995;23;20024;-76
2023/10/17 03:09:37;;;;;;;3.90;3.53;;;;;;;4.52;64.31;96790.28;6216204;23;20025;-77
2023/10/17 03:12:07;;;;;;;4.65;3.72;;;;;;;4.53;64.41;96786.75;6215419;23;20346;-76
2023/10/17 03:14:40;;;;;;;6.05;4.25;;;;;;;4.54;64.55;96781.44;6215095;23;20044;-76
2023/10/17 03:17:08;;;;;;;4.63;3.35;;;;;;;4.56;64.29;96785.66;6215775;23;20016;-76
2023/10/17 03:19:37;;;;;;;4.63;3.80;;;;;;;4.57;64.36;96784.69;6217180;23;20100;-76
2023/10/17 03:22:19;;;;;;;4.55;3.80;;;;;;;4.57;64.38;96784.69;6215709;23;20096;-77
2023/10/17 03:24:48;;;;;;;4.05;3.42;;;;;;;4.56;64.25;96788.25;6215235;23;20031;-77
2023/10/17 03:27:26;;;;;;;4.95;3.47;;;;;;;4.51;64.71;96781.72;6215636;23;20358;-77
2023/10/17 03:29:54;;;;;;;4.13;3.22;;;;;;;4.53;64.96;96779.81;6215197;23;20025;-76
2023/10/17 03:32:23;;;;;;;3.88;3.03;;;;;;;4.57;64.70;96776.94;6215038;23;20055;-76
2023/10/17 03:34:56;;;;;;;3.50;2.90;;;;;;;4.63;64.89;96777.19;6216366;23;20020;-76
2023/10/17 03:37:30;;;;;;;4.43;3.03;;;;;;;4.72;65.00;96772.94;6215853;23;20447;-76
2023/10/17 03:40:14;;;;;;;3.42;2.90;;;;;;;4.78;64.71;96772.41;6215546;23;20411;-76
2023/10/17 03:42:44;;;;;;;4.03;3.08;;;;;;;4.81;64.67;96769.53;6216880;23;20024;-76
2023/10/17 03:45:16;;;;;;;4.82;2.88;;;;;;;4.83;64.75;96774.56;6217033;23;20078;-76
2023/10/17 03:47:48;;;;;;;4.40;2.90;;;;;;;4.89;67.41;96769.63;6217431;23;20108;-77
2023/10/17 03:50:31;;;;;;;4.65;2.88;;;;;;;4.97;65.79;96768.13;6217409;23;20234;-77
2023/10/17 03:53:05;;;;;;;4.43;3.08;;;;;;;5.02;65.19;96763.34;6216363;23;20093;-77
2023/10/17 03:55:35;;;;;;;4.75;3.08;;;;;;;5.05;65.25;96763.03;6216740;23;20024;-77
2023/10/17 03:58:08;;;;;;;4.93;3.00;;;;;;;5.08;64.46;96760.19;6219227;23;20417;-77
2023/10/17 04:00:41;;;;;;;4.55;3.63;;;;;;;5.06;63.99;96762.91;6216763;23;20024;-76
2023/10/17 04:03:19;;;;;;;4.18;3.33;;;;;;;5.05;64.24;96760.44;6217078;23;20069;-77
2023/10/17 04:05:50;;;;;;;5.40;3.88;;;;;;;5.05;63.76;96752.69;6190213;23;20028;-77
2023/10/17 04:08:25;;;;;;;4.57;3.45;;;;;;;5.02;63.61;96755.56;6216657;23;20025;-77
2023/10/17 04:11:08;;;;;;;5.10;3.88;;;;;;;5.00;63.66;96750.53;6217128;23;20104;-77
2023/10/17 04:13:37;;;;;;;6.47;4.47;;;;;;;4.98;63.87;96743.88;6217041;23;20067;-77
2023/10/17 04:16:09;;;;;;;5.38;3.60;;;;;;;4.94;63.74;96748.53;6216264;23;20052;-77
2023/10/17 04:18:38;;;;;;;5.95;3.47;;;;;;;4.93;63.78;96752.88;6213547;23;20092;-76
2023/10/17 04:21:17;;;;;;;5.53;4.10;;;;;;;4.94;63.83;96759.69;6217547;23;20024;-77
2023/10/17 04:23:49;;;;;;;6.05;4.22;;;;;;;4.93;63.49;96752.06;6217716;23;20021;-77
2023/10/17 04:26:19;;;;;;;6.18;3.90;;;;;;;4.89;63.61;96753.31;6215915;23;20476;-76
2023/10/17 04:28:49;;;;;;;6.38;4.10;;;;;;;4.81;63.26;96748.88;6216077;23;20553;-77
2023/10/17 04:31:25;;;;;;;6.75;4.65;;;;;;;4.77;63.66;96750.09;6232834;23;20457;-77
2023/10/17 04:34:06;;;;;;;3.65;3.30;;;;;;;4.78;65.40;96751.72;6241575;23;20020;-76
2023/10/17 04:36:37;;;;;;;5.05;3.70;;;;;;;4.84;64.98;96756.31;6224824;23;20028;-77
2023/10/17 04:39:18;;;;;;;5.13;4.10;;;;;;;4.90;65.55;96744.63;6216216;23;20111;-77
2023/10/17 04:44:39;;;;;;;6.50;3.83;;;;;;;5.00;65.80;96739.41;6218499;23;20024;-77
2023/10/17 04:49:52;;;;;;;6.20;4.00;;;;;;;5.08;65.14;96736.91;6214826;23;20032;-76
2023/10/17 04:52:21;;;;;;;6.45;4.38;;;;;;;5.04;65.15;96733.78;6216595;23;20048;-77
2023/10/17 04:54:52;;;;;;;6.38;3.88;;;;;;;5.05;65.15;96726.84;6215057;23;20025;-75
2023/10/17 04:57:21;;;;;;;5.95;4.43;;;;;;;4.99;64.28;96730.84;6216017;23;20087;-77
2023/10/17 05:00:09;;;;;;;7.05;4.50;;;;;;;4.99;66.80;96727.44;6215961;23;20024;-77
2023/10/17 05:02:36;;;;;;;6.88;4.47;;;;;;;5.06;67.07;96720.72;6216540;23;20032;-77
2023/10/17 05:05:39;;;;;;;8.63;4.53;;;;;;;5.10;66.77;96720.28;6215734;23;20075;-79
2023/10/17 06:17:28;;;;;;;10.82;7.57;;;;;;;5.70;66.58;96730.09;6216850;23;20083;-79
2023/10/17 06:19:58;;;;;;;10.60;8.32;;;;;;;5.75;65.81;96735.66;6216066;23;20410;-78
2023/10/17 06:31:34;;;;;;;14.00;7.28;;;;;;;5.94;65.82;96744.22;6215971;23;20021;-79
2023/10/17 06:33:42;;;;;;;10.27;6.55;;;;;;;5.99;65.35;96752.38;6227547;23;20035;-78
2023/10/17 06:36:24;;;;;;;10.93;7.43;;;;;;;5.99;65.93;96752.38;6228225;23;20048;-78
2023/10/17 06:38:52;;;;;;;11.40;7.85;;;;;;;6.01;65.68;96754.84;6224790;23;20012;-79
2023/10/17 06:41:28;;;;;;;10.85;6.78;;;;;;;6.04;65.50;96751.97;6219152;23;20075;-78
2023/10/17 06:43:58;;;;;;;9.48;7.18;;;;;;;6.08;65.52;96751.53;6219515;23;20035;-78
2023/10/17 06:46:40;;;;;;;12.25;7.53;;;;;;;6.09;65.16;96752.31;6237462;23;20016;-78
2023/10/17 06:49:08;;;;;;;15.60;8.77;;;;;;;6.08;64.69;96746.34;6239497;23;20012;-78
2023/10/17 06:51:39;;;;;;;9.80;7.78;;;;;;;6.09;64.55;96757.50;6230539;23;20031;-79
2023/10/17 06:54:07;;;;;;;11.00;7.68;;;;;;;6.08;64.44;96756.69;6218805;23;20034;-79
2023/10/17 06:56:44;;;;;;;11.13;7.47;;;;;;;6.09;64.57;96755.72;6219023;23;20021;-79
2023/10/17 06:59:24;;;;;;;10.32;7.78;;;;;;;6.11;64.79;96756.38;6225158;23;20051;-78
2023/10/17 07:02:10;;;;;;;9.88;7.65;;;;;;;6.15;65.09;96756.91;6236975;23;20055;-79
2023/10/17 07:04:40;;;;;;;12.45;8.52;;;;;;;6.20;65.03;96762.44;6236334;23;20071;-79
2023/10/17 07:07:09;;;;;;;12.48;9.18;;;;;;;6.22;64.98;96763.09;6236945;23;20205;-79
2023/10/17 07:09:39;;;;;;;14.20;8.55;;;;;;;6.22;64.24;96763.09;6236375;23;20071;-78
2023/10/17 07:12:13;;;;;;;11.80;8.57;;;;;;;6.21;64.39;96765.84;6220345;23;20056;-79
2023/10/17 07:14:49;;;;;;;11.80;8.60;;;;;;;6.24;63.96;96773.31;6215832;23;20044;-79
2023/10/17 07:17:28;;;;;;;12.88;8.85;;;;;;;6.29;64.32;96777.06;6217060;23;20059;-78
2023/10/17 07:19:59;;;;;;;12.95;8.98;;;;;;;6.38;64.25;96780.53;6218418;23;20099;-79
2023/10/17 07:22:35;;;;;;;14.48;8.68;;;;;;;6.48;65.28;96789.03;6218456;23;20048;-78
2023/10/17 07:25:07;;;;;;;11.10;8.20;;;;;;;6.53;64.53;96781.63;6218358;23;20021;-78
2023/10/17 07:27:41;;;;;;;10.93;8.20;;;;;;;6.56;63.95;96781.34;6218348;23;20103;-79
2023/10/17 07:30:13;;;;;;;11.82;8.10;;;;;;;6.59;63.91;96782.81;6217880;23;20401;-78
2023/10/17 07:32:48;;;;;;;16.17;8.23;;;;;;;6.61;63.42;96773.09;6218451;23;20020;-79
2023/10/17 07:35:24;;;;;;;11.25;8.65;;;;;;;6.66;63.57;96770.06;6220594;23;20024;-79
2023/10/17 07:37:56;;;;;;;10.07;8.15;;;;;;;6.69;63.69;96767.13;6217181;23;20409;-79
2023/10/17 07:43:09;;;;;;;10.93;8.45;;;;;;;6.79;63.85;96757.47;6220255;23;20108;-77
2023/10/17 07:45:39;;;;;;;11.15;8.27;;;;;;;6.83;63.23;96756.22;6242339;23;20008;-79
2023/10/17 07:48:22;;;;;;;12.77;7.78;;;;;;;6.89;62.86;96755.59;6241250;23;20020;-79
2023/10/17 07:50:51;;;;;;;11.88;8.75;;;;;;;6.98;63.31;96754.66;6219486;23;20027;-79
2023/10/17 07:53:22;;;;;;;12.20;7.80;;;;;;;7.05;62.32;96761.84;6218428;23;20028;-79
2023/10/17 07:55:52;;;;;;;12.02;8.85;;;;;;;7.12;62.53;96752.44;6217014;23;20016;-79
2023/10/17 07:58:38;;;;;;;10.80;8.63;;;;;;;7.17;62.31;96760.56;6217375;23;20024;-79
2023/10/17 08:01:14;;;;;;;13.55;8.70;;;;;;;7.23;63.19;96754.75;6217292;23;20016;-79
2023/10/17 08:03:51;;;;;;;12.23;8.88;;;;;;;7.28;62.12;96755.13;6217374;23;20024;-79
2023/10/17 08:06:22;;;;;;;11.80;9.45;;;;;;;7.34;63.09;96759.66;6218995;23;20528;-79
2023/10/17 08:08:52;;;;;;;13.82;8.77;;;;;;;7.40;62.14;96753.03;6216863;23;20066;-79
2023/10/17 08:11:31;;;;;;;11.60;8.60;;;;;;;7.48;62.94;96752.22;6216780;23;20366;-79
2023/10/17 08:14:09;;;;;;;12.05;8.40;;;;;;;7.56;62.59;96752.25;6217246;23;20047;-78
2023/10/17 08:16:40;;;;;;;11.10;9.32;;;;;;;7.65;62.60;96751.31;6216647;23;20021;-78
2023/10/17 08:19:14;;;;;;;14.68;9.98;;;;;;;7.73;61.56;96753.91;6218266;23;20025;-79
2023/10/17 08:21:49;;;;;;;12.60;9.23;;;;;;;7.78;60.93;96762.06;6216481;23;20036;-79
2023/10/17 08:24:26;;;;;;;16.23;10.23;;;;;;;7.87;61.07;96754.25;6216723;23;20048;-79
2023/10/17 08:29:37;;;;;;;12.23;9.32;;;;;;;8.14;60.02;96761.75;6215453;23;20021;-79
2023/10/17 08:32:15;;;;;;;13.77;9.77;;;;;;;8.25;59.61;96758.81;6216207;23;20079;-79
2023/10/17 08:34:44;;;;;;;14.57;9.48;;;;;;;8.40;61.42;96760.78;6216518;23;20099;-79
2023/10/17 08:37:18;;;;;;;16.92;10.02;;;;;;;8.59;60.27;96755.25;6216485;23;20029;-79
2023/10/17 08:39:52;;;;;;;12.15;10.15;;;;;;;8.76;59.36;96750.03;6215941;23;20100;-80
2023/10/17 08:42:30;;;;;;;15.85;9.73;;;;;;;8.97;59.35;96754.69;6216731;23;20108;-79
2023/10/17 08:44:59;;;;;;;13.13;10.25;;;;;;;9.32;58.99;96753.41;6216251;23;20020;-79
2023/10/17 08:47:30;;;;;;;14.07;10.57;;;;;;;9.64;57.05;96746.38;6216661;23;20020;-79
2023/10/17 08:50:03;;;;;;;13.68;10.82;;;;;;;9.88;57.04;96746.25;6215715;23;20016;-79
2023/10/17 08:52:35;;;;;;;16.25;10.77;;;;;;;10.10;56.03;96743.78;6216060;23;20085;-79
2023/10/17 08:55:03;;;;;;;12.70;9.77;;;;;;;10.31;55.12;96746.59;6216049;23;20025;-79
2023/10/17 08:57:32;;;;;;;14.82;10.10;;;;;;;10.33;55.23;96745.63;6215778;23;20021;-79
2023/10/17 09:00:23;;;;;;;12.93;10.25;;;;;;;10.33;55.44;96748.22;6216175;23;20052;-79
2023/10/17 09:03:01;;;;;;;14.20;10.57;;;;;;;10.36;54.80;96747.84;6216653;23;20434;-79
2023/10/17 09:05:29;;;;;;;13.25;9.80;;;;;;;10.33;54.93;96751.63;6216114;23;20024;-79
2023/10/17 09:07:58;;;;;;;11.75;9.55;;;;;;;10.24;54.97;96745.66;6215997;23;20025;-79
2023/10/17 09:10:36;;;;;;;12.27;9.70;;;;;;;10.22;54.86;96752.81;6215795;23;20017;-80
2023/10/17 09:15:55;;;;;;;13.32;9.48;;;;;;;10.29;54.92;96750.34;6216466;23;20462;-79
2023/10/17 09:18:27;;;;;;;13.07;8.98;;;;;;;10.25;54.94;96743.84;6216215;23;20192;-79
2023/10/17 09:20:56;;;;;;;13.57;9.48;;;;;;;10.33;55.30;96743.81;6215597;23;20040;-79
2023/10/17 09:23:26;;;;;;;13.57;9.90;;;;;;;10.39;54.82;96737.88;6215520;23;20027;-79
2023/10/17 09:25:55;;;;;;;14.95;10.27;;;;;;;10.50;55.30;96736.66;6216197;23;20083;-79
2023/10/17 09:28:25;;;;;;;11.07;9.85;;;;;;;10.67;55.13;96740.72;6215593;23;20090;-79
2023/10/17 09:31:03;;;;;;;11.55;9.43;;;;;;;10.84;54.81;96730.09;6215689;23;20028;-79
2023/10/17 09:33:32;;;;;;;13.98;10.10;;;;;;;10.97;53.89;96732.88;6215532;23;20032;-79
2023/10/17 09:36:03;;;;;;;14.95;10.70;;;;;;;11.06;53.30;96744.88;6215219;23;20075;-79
2023/10/17 09:38:32;;;;;;;13.13;10.05;;;;;;;11.05;53.47;96745.84;6215895;23;20029;-80
2023/10/17 09:41:00;;;;;;;14.48;10.27;;;;;;;11.13;53.25;96745.75;6222286;23;20016;-80
2023/10/17 09:43:45;;;;;;;11.52;8.93;;;;;;;11.48;52.59;96738.16;6219604;23;20514;-80
2023/10/17 09:46:13;;;;;;;11.30;8.65;;;;;;;11.85;51.73;96738.94;6215200;23;20024;-79
2023/10/17 09:48:44;;;;;;;13.00;9.73;;;;;;;12.14;50.78;96732.00;6215005;23;20028;-80
2023/10/17 09:51:20;;;;;;;10.83;8.23;;;;;;;12.37;50.28;96739.59;6215349;23;20028;-80
2023/10/17 09:53:53;;;;;;;11.68;8.43;;;;;;;12.41;50.35;96738.22;6215316;23;20086;-79
2023/10/17 09:56:27;;;;;;;12.15;8.30;;;;;;;12.43;49.99;96736.25;6215187;23;20029;-79
2023/10/17 09:59:02;;;;;;;11.95;8.15;;;;;;;12.32;49.95;96737.56;6214772;23;20513;-79
2023/10/17 10:01:32;;;;;;;10.20;8.13;;;;;;;12.31;50.62;96727.28;6214932;23;20020;-79
2023/10/17 10:04:02;;;;;;;10.80;7.80;;;;;;;12.38;50.46;96736.00;6215880;23;20025;-79
2023/10/17 10:06:31;;;;;;;9.90;7.78;;;;;;;12.47;50.57;96727.00;6215174;23;20027;-79
2023/10/17 10:09:26;;;;;;;10.05;7.30;;;;;;;12.55;50.26;96731.28;6214831;23;20028;-79
2023/10/17 10:11:58;;;;;;;8.13;6.95;;;;;;;12.67;50.49;96724.53;6214947;23;20103;-80
2023/10/17 10:14:42;;;;;;;9.80;7.80;;;;;;;12.76;49.44;96725.19;6214813;23;20080;-80
2023/10/17 10:17:11;;;;;;;9.50;7.60;;;;;;;12.81;49.92;96717.56;6214510;23;20023;-79
2023/10/17 10:20:00;;;;;;;9.00;7.82;;;;;;;12.84;49.65;96721.63;6214417;23;20071;-79
2023/10/17 10:22:49;;;;;;;7.63;6.60;;;;;;;12.93;50.19;96728.31;6215248;23;20024;-79
2023/10/17 10:25:17;;;;;;;9.82;7.00;;;;;;;13.01;49.46;96722.94;6206130;23;20047;-79
2023/10/17 10:27:46;;;;;;;7.65;5.90;;;;;;;13.10;49.83;96727.00;6217835;23;20028;-79
2023/10/17 10:30:36;;;;;;;10.85;6.75;;;;;;;13.19;49.10;96728.44;6215965;23;20043;-79
2023/10/17 10:33:05;;;;;;;8.20;6.47;;;;;;;13.31;48.93;96714.81;6216156;23;20422;-80
2023/10/17 10:35:34;;;;;;;7.85;7.05;;;;;;;13.39;48.55;96709.41;6224881;23;20055;-80
2023/10/17 10:38:02;;;;;;;7.32;6.45;;;;;;;13.45;48.49;96711.25;6226998;23;20023;-80
2023/10/17 10:40:32;;;;;;;7.22;6.47;;;;;;;13.38;50.00;96715.63;6222483;23;20028;-80
2023/10/17 10:43:04;;;;;;;9.18;6.35;;;;;;;13.25;49.07;96723.41;6216685;23;20463;-80
2023/10/17 10:45:36;;;;;;;8.13;6.18;;;;;;;13.08;50.00;96708.03;6215339;23;20020;-79
2023/10/17 10:48:14;;;;;;;9.68;6.85;;;;;;;12.91;49.88;96710.16;6216129;23;20086;-80
2023/10/17 10:50:44;;;;;;;7.28;6.40;;;;;;;12.84;50.38;96711.16;6216918;23;20454;-80
2023/10/17 10:53:20;;;;;;;8.88;6.93;;;;;;;12.87;50.90;96711.56;6216718;23;20024;-80
2023/10/17 10:55:52;;;;;;;8.15;5.88;;;;;;;13.08;50.97;96712.47;6216608;23;20508;-80
2023/10/17 10:58:19;;;;;;;8.75;6.03;;;;;;;13.35;51.03;96718.66;6230353;23;20032;-80
2023/10/17 11:00:47;;;;;;;9.65;5.97;;;;;;;13.64;50.07;96716.72;6237376;23;20025;-80
2023/10/17 11:03:17;;;;;;;6.75;5.97;;;;;;;13.87;48.38;96725.06;6227609;23;20031;-80
2023/10/17 11:05:53;;;;;;;7.80;6.15;;;;;;;13.96;47.79;96725.66;6217590;23;20091;-79
2023/10/17 11:08:21;;;;;;;6.18;5.57;;;;;;;13.99;47.95;96722.63;6217540;23;20027;-79
2023/10/17 11:10:49;;;;;;;8.20;5.53;;;;;;;14.01;48.71;96716.22;6217222;23;20027;-79
2023/10/17 11:13:17;;;;;;;7.47;5.82;;;;;;;14.01;48.74;96708.34;6216517;23;20121;-79
2023/10/17 11:15:46;;;;;;;8.15;5.53;;;;;;;13.98;48.15;96707.91;6216738;23;20052;-79
2023/10/17 11:18:16;;;;;;;8.18;6.00;;;;;;;13.91;48.63;96709.75;6217263;23;20020;-80
2023/10/17 11:20:44;;;;;;;7.20;5.15;;;;;;;13.81;48.33;96707.50;6234794;23;20020;-80
2023/10/17 11:23:14;;;;;;;8.10;5.70;;;;;;;13.69;48.01;96709.09;6237746;23;20025;-80
2023/10/17 11:25:47;;;;;;;7.38;6.18;;;;;;;13.50;48.13;96705.41;6233162;23;20024;-80
2023/10/17 11:28:17;;;;;;;8.70;5.20;;;;;;;13.35;49.77;96702.94;6216328;23;20025;-80
2023/10/17 11:30:45;;;;;;;6.07;4.85;;;;;;;13.22;49.45;96708.91;6217158;23;20039;-80
2023/10/17 11:33:16;;;;;;;5.93;5.35;;;;;;;13.14;49.33;96706.44;6218427;23;20024;-80
2023/10/17 11:35:48;;;;;;;5.53;5.00;;;;;;;13.06;48.78;96704.00;6216963;23;20016;-80
2023/10/17 11:38:34;;;;;;;6.63;5.50;;;;;;;12.98;49.05;96694.50;6216675;23;20024;-79
2023/10/17 11:41:10;;;;;;;8.85;6.03;;;;;;;12.93;48.59;96694.28;6216391;23;20091;-79
2023/10/17 11:43:50;;;;;;;8.27;5.35;;;;;;;12.85;48.79;96699.66;6216524;23;20020;-79
2023/10/17 11:46:28;;;;;;;6.32;4.70;;;;;;;12.75;48.68;96700.84;6216654;23;20021;-80
2023/10/17 11:49:20;;;;;;;5.40;4.63;;;;;;;12.71;49.00;96701.41;6222545;23;20028;-80
2023/10/17 11:51:50;;;;;;;9.77;4.82;;;;;;;12.67;49.19;96695.75;6223422;23;20016;-80
2023/10/17 11:54:22;;;;;;;5.28;4.78;;;;;;;12.61;48.85;96687.84;6216495;23;20076;-79
2023/10/17 11:57:08;;;;;;;5.75;5.15;;;;;;;12.53;48.99;96683.59;6216756;23;20048;-79
2023/10/17 11:59:36;;;;;;;9.63;4.85;;;;;;;12.44;49.43;96675.09;6216019;23;20024;-79
2023/10/17 12:02:04;;;;;;;8.75;5.30;;;;;;;12.39;49.93;96672.22;6216406;23;20057;-79
2023/10/17 12:04:33;;;;;;;7.90;5.70;;;;;;;12.38;50.04;96669.81;6215562;23;20407;-79
2023/10/17 12:07:01;;;;;;;5.45;4.90;;;;;;;12.40;49.96;96666.00;6215829;23;20024;-79
2023/10/17 12:09:31;;;;;;;5.75;4.88;;;;;;;12.38;50.32;96672.44;6216021;23;20354;-80
2023/10/17 12:12:02;;;;;;;6.20;4.47;;;;;;;12.43;50.17;96665.59;6215858;23;20020;-79
2023/10/17 12:14:30;;;;;;;5.97;4.90;;;;;;;12.49;51.29;96666.66;6216083;23;20075;-79
2023/10/17 12:17:00;;;;;;;6.15;5.13;;;;;;;12.50;50.65;96673.50;6216054;23;20095;-79
2023/10/17 12:19:28;;;;;;;6.25;5.00;;;;;;;12.49;50.85;96667.47;6215895;23;20421;-79
2023/10/17 12:22:00;;;;;;;7.32;5.38;;;;;;;12.50;50.88;96668.25;6215956;23;20108;-79
2023/10/17 12:24:29;;;;;;;8.05;5.45;;;;;;;12.47;51.12;96661.59;6215621;23;20020;-79
2023/10/17 12:26:58;;;;;;;8.25;5.13;;;;;;;12.45;51.17;96660.19;6216032;23;20024;-80
2023/10/17 12:29:28;;;;;;;8.25;5.25;;;;;;;12.43;51.31;96656.97;6215797;23;20028;-79
2023/10/17 12:31:57;;;;;;;7.90;5.18;;;;;;;12.42;51.41;96657.94;6215839;23;20056;-79
2023/10/17 12:34:25;;;;;;;8.52;4.90;;;;;;;12.40;51.51;96658.16;6215758;23;20017;-79
2023/10/17 12:36:52;;;;;;;5.72;5.13;;;;;;;12.40;51.39;96646.84;6215242;23;20489;-80
2023/10/17 12:39:21;;;;;;;5.55;4.95;;;;;;;12.38;51.49;96651.50;6215583;23;20339;-80
2023/10/17 12:41:49;;;;;;;7.80;4.63;;;;;;;12.40;51.51;96637.22;6215769;23;20035;-79
2023/10/17 12:44:18;;;;;;;5.13;4.40;;;;;;;12.41;51.22;96636.22;6215793;23;20029;-79
2023/10/17 12:46:46;;;;;;;5.47;4.25;;;;;;;12.40;51.30;96626.75;6216232;23;20043;-79
2023/10/17 12:49:15;;;;;;;5.53;4.50;;;;;;;12.38;51.57;96625.34;6215735;23;20031;-79
2023/10/17 12:51:43;;;;;;;6.45;4.32;;;;;;;12.36;51.94;96625.53;6215770;23;20020;-79
2023/10/17 12:54:11;;;;;;;7.78;4.78;;;;;;;12.36;51.50;96620.28;6215193;23;20024;-79
2023/10/17 12:56:39;;;;;;;6.88;4.80;;;;;;;12.37;51.79;96624.50;6215164;23;20024;-79
2023/10/17 12:59:12;;;;;;;7.07;4.43;;;;;;;12.39;51.43;96619.91;6215581;23;20024;-79
2023/10/17 13:01:41;;;;;;;4.20;3.80;;;;;;;12.45;52.37;96623.56;6215359;23;20477;-80
2023/10/17 13:04:09;;;;;;;4.50;4.10;;;;;;;12.53;51.40;96624.22;6215467;23;20025;-80
2023/10/17 13:06:38;;;;;;;4.63;4.03;;;;;;;12.58;50.69;96619.19;6215261;23;20048;-80
2023/10/17 13:09:06;;;;;;;6.55;3.65;;;;;;;12.58;50.49;96629.66;6215272;23;20474;-79
2023/10/17 13:11:33;;;;;;;5.60;4.20;;;;;;;12.56;50.43;96623.00;6215770;23;20079;-79
2023/10/17 13:14:01;;;;;;;5.70;4.43;;;;;;;12.52;50.60;96608.69;6215750;23;20063;-80
2023/10/17 13:16:29;;;;;;;7.80;4.35;;;;;;;12.45;50.90;96600.81;6215394;23;20386;-79
2023/10/17 13:19:05;;;;;;;5.07;3.75;;;;;;;12.40;50.32;96605.00;6215523;23;20056;-79
2023/10/17 13:21:36;;;;;;;6.07;4.00;;;;;;;12.33;50.55;96610.19;6215995;23;20027;-80
2023/10/17 13:24:05;;;;;;;6.38;4.15;;;;;;;12.29;50.74;96604.56;6215964;23;20025;-80
2023/10/17 13:26:32;;;;;;;6.35;4.07;;;;;;;12.26;51.03;96620.63;6216066;23;20063;-79
2023/10/17 13:29:00;;;;;;;4.95;4.10;;;;;;;12.24;51.21;96617.38;6215677;23;20058;-79
2023/10/17 13:31:28;;;;;;;4.47;3.83;;;;;;;12.20;51.25;96604.88;6215256;23;20469;-79